createdAt,value
2023-05-09T00:00:14.790Z,80.44
2023-05-09T00:00:26.699Z,80.35
2023-05-09T00:00:39.731Z,80.40
2023-05-09T00:00:51.790Z,80.43
2023-05-09T00:01:11.057Z,80.64
2023-05-09T00:01:22.998Z,80.74
2023-05-09T00:01:35.284Z,80.74
2023-05-09T00:01:47.207Z,80.75
2023-05-09T00:01:59.249Z,80.85
2023-05-09T00:02:11.436Z,80.79
2023-05-09T00:02:23.651Z,80.76
2023-05-09T00:02:36.231Z,80.92
2023-05-09T00:02:48.488Z,80.87
2023-05-09T00:03:00.704Z,80.98
2023-05-09T00:03:14.306Z,80.84
2023-05-09T00:03:26.982Z,81.15
2023-05-09T00:03:39.631Z,81.16
2023-05-09T00:03:51.709Z,81.05
2023-05-09T00:04:05.035Z,81.07
2023-05-09T00:04:17.041Z,80.76
2023-05-09T00:04:30.145Z,80.91
2023-05-09T00:04:42.399Z,80.97
2023-05-09T00:04:54.416Z,81.19
2023-05-09T00:05:08.035Z,81.08
2023-05-09T00:05:21.691Z,81.08
2023-05-09T00:05:33.657Z,81.20
2023-05-09T00:05:46.132Z,81.18
2023-05-09T00:05:58.065Z,81.23
2023-05-09T00:06:11.511Z,81.15
2023-05-09T00:06:23.417Z,81.11
2023-05-09T00:06:35.413Z,80.96
2023-05-09T00:06:47.360Z,81.04
2023-05-09T00:06:59.468Z,81.33
2023-05-09T00:07:11.360Z,81.28
2023-05-09T00:07:23.256Z,81.25
2023-05-09T00:07:35.262Z,81.18
2023-05-09T00:07:48.172Z,81.42
2023-05-09T00:08:00.235Z,81.47
2023-05-09T00:08:12.333Z,81.31
2023-05-09T00:08:24.212Z,81.26
2023-05-09T00:08:36.298Z,81.17
2023-05-09T00:08:48.526Z,81.11
2023-05-09T00:09:00.434Z,81.15
2023-05-09T00:09:12.738Z,81.11
2023-05-09T00:09:25.875Z,81.17
2023-05-09T00:09:37.815Z,81.43
2023-05-09T00:09:49.705Z,81.22
2023-05-09T00:10:01.709Z,81.42
2023-05-09T00:10:14.169Z,81.44
2023-05-09T00:10:27.396Z,81.26
2023-05-09T00:10:39.568Z,81.40
2023-05-09T00:10:52.146Z,81.36
2023-05-09T00:11:04.124Z,81.36
2023-05-09T00:11:16.110Z,81.15
2023-05-09T00:11:30.460Z,81.18
2023-05-09T00:11:42.464Z,81.17
2023-05-09T00:11:54.471Z,81.35
2023-05-09T00:12:06.684Z,81.46
2023-05-09T00:12:18.584Z,81.40
2023-05-09T00:12:30.972Z,81.36
2023-05-09T00:12:43.722Z,81.42
2023-05-09T00:12:57.377Z,81.48
2023-05-09T00:13:09.396Z,81.53
2023-05-09T00:13:21.443Z,81.56
2023-05-09T00:13:34.657Z,81.75
2023-05-09T00:13:49.091Z,81.57
2023-05-09T00:14:02.434Z,81.53
2023-05-09T00:14:14.390Z,81.74
2023-05-09T00:14:27.324Z,81.57
2023-05-09T00:14:40.964Z,81.55
2023-05-09T00:14:54.242Z,81.53
2023-05-09T00:15:08.260Z,81.45
2023-05-09T00:15:20.307Z,81.60
2023-05-09T00:15:32.280Z,81.88
2023-05-09T00:15:44.826Z,81.65
2023-05-09T00:15:59.419Z,81.61
2023-05-09T00:16:11.424Z,81.58
2023-05-09T00:16:24.118Z,81.57
2023-05-09T00:16:36.750Z,81.68
2023-05-09T00:16:49.204Z,81.69
2023-05-09T00:17:01.194Z,81.77
2023-05-09T00:17:14.443Z,81.83
2023-05-09T00:17:28.583Z,81.96
2023-05-09T00:17:40.690Z,81.68
2023-05-09T00:17:52.978Z,81.84
2023-05-09T00:18:05.175Z,81.79
2023-05-09T00:18:18.003Z,81.77
2023-05-09T00:18:30.921Z,81.68
2023-05-09T00:18:44.031Z,81.70
2023-05-09T00:18:57.906Z,81.66
2023-05-09T00:19:09.904Z,81.92
2023-05-09T00:19:21.891Z,81.73
2023-05-09T00:19:34.092Z,81.84
2023-05-09T00:19:46.009Z,81.96
2023-05-09T00:19:57.895Z,82.10
2023-05-09T00:20:12.241Z,81.94
2023-05-09T00:20:24.481Z,81.91
2023-05-09T00:20:37.493Z,82.17
2023-05-09T00:20:50.608Z,81.98
2023-05-09T00:21:03.953Z,82.03
2023-05-09T00:21:15.850Z,81.90
2023-05-09T00:21:28.230Z,81.89
2023-05-09T00:21:40.175Z,82.17
2023-05-09T00:21:52.191Z,82.15
2023-05-09T00:22:04.108Z,82.03
2023-05-09T00:22:21.468Z,82.11
2023-05-09T00:22:33.360Z,82.20
2023-05-09T00:22:45.314Z,82.41
2023-05-09T00:22:57.201Z,82.73
2023-05-09T00:23:09.713Z,82.31
2023-05-09T00:23:21.664Z,82.40
2023-05-09T00:23:33.561Z,82.53
2023-05-09T00:23:47.005Z,82.40
2023-05-09T00:24:00.266Z,82.79
2023-05-09T00:24:12.178Z,82.65
2023-05-09T00:24:24.152Z,82.62
2023-05-09T00:24:36.064Z,82.26
2023-05-09T00:24:48.674Z,81.92
2023-05-09T00:25:00.832Z,82.24
2023-05-09T00:25:12.978Z,82.19
2023-05-09T00:25:25.436Z,82.11
2023-05-09T00:25:37.364Z,82.60
2023-05-09T00:25:49.328Z,82.56
2023-05-09T00:26:01.450Z,82.58
2023-05-09T00:26:13.382Z,82.50
2023-05-09T00:26:26.211Z,82.61
2023-05-09T00:26:38.139Z,82.64
2023-05-09T00:26:50.049Z,82.71
2023-05-09T00:27:01.948Z,82.48
2023-05-09T00:27:14.240Z,82.64
2023-05-09T00:27:27.268Z,82.29
2023-05-09T00:27:39.183Z,82.32
2023-05-09T00:27:51.184Z,82.12
2023-05-09T00:28:03.312Z,82.25
2023-05-09T00:28:15.289Z,82.29
2023-05-09T00:28:27.486Z,82.30
2023-05-09T00:28:39.409Z,82.50
2023-05-09T00:28:51.396Z,82.91
2023-05-09T00:29:03.438Z,82.89
2023-05-09T00:29:15.458Z,82.98
2023-05-09T00:29:27.401Z,82.48
2023-05-09T00:29:39.390Z,82.73
2023-05-09T00:29:51.334Z,82.44
2023-05-09T00:30:04.920Z,82.46
2023-05-09T00:30:16.969Z,82.57
2023-05-09T00:30:28.883Z,82.91
2023-05-09T00:30:40.836Z,82.63
2023-05-09T00:30:53.060Z,82.61
2023-05-09T00:31:05.619Z,82.93
2023-05-09T00:31:17.614Z,83.02
2023-05-09T00:31:29.560Z,82.94
2023-05-09T00:31:41.491Z,83.12
2023-05-09T00:31:53.500Z,83.14
2023-05-09T00:32:05.647Z,82.94
2023-05-09T00:32:17.636Z,83.03
2023-05-09T00:32:29.857Z,83.14
2023-05-09T00:32:41.905Z,83.12
2023-05-09T00:32:53.986Z,83.11
2023-05-09T00:33:06.247Z,83.32
2023-05-09T00:33:19.368Z,83.05
2023-05-09T00:33:31.351Z,83.03
2023-05-09T00:33:43.269Z,83.18
2023-05-09T00:33:55.207Z,83.10
2023-05-09T00:34:07.134Z,83.02
2023-05-09T00:34:19.074Z,82.99
2023-05-09T00:34:31.007Z,83.19
2023-05-09T00:34:44.022Z,83.00
2023-05-09T00:34:56.147Z,82.95
2023-05-09T00:35:09.028Z,83.15
2023-05-09T00:35:21.066Z,83.02
2023-05-09T00:35:33.018Z,83.13
2023-05-09T00:35:44.913Z,83.06
2023-05-09T00:35:56.847Z,83.32
2023-05-09T00:36:08.869Z,82.98
2023-05-09T00:36:21.254Z,83.07
2023-05-09T00:36:34.101Z,83.36
2023-05-09T00:36:46.046Z,83.24
2023-05-09T00:36:57.947Z,83.34
2023-05-09T00:37:09.954Z,83.33
2023-05-09T00:37:21.989Z,83.23
2023-05-09T00:37:33.940Z,83.32
2023-05-09T00:37:45.940Z,83.46
2023-05-09T00:37:57.881Z,83.72
2023-05-09T00:38:09.917Z,83.55
2023-05-09T00:38:24.834Z,83.71
2023-05-09T00:38:36.783Z,83.69
2023-05-09T00:38:49.856Z,83.75
2023-05-09T00:39:01.749Z,83.59
2023-05-09T00:39:13.701Z,83.44
2023-05-09T00:39:25.602Z,83.40
2023-05-09T00:39:38.883Z,83.42
2023-05-09T00:39:50.785Z,82.92
2023-05-09T00:40:04.168Z,83.34
2023-05-09T00:40:16.103Z,83.32
2023-05-09T00:40:28.032Z,83.35
2023-05-09T00:40:40.232Z,83.33
2023-05-09T00:40:53.270Z,83.29
2023-05-09T00:41:05.274Z,83.37
2023-05-09T00:41:17.300Z,83.10
2023-05-09T00:41:29.254Z,83.28
2023-05-09T00:41:41.162Z,83.57
2023-05-09T00:41:53.194Z,83.71
2023-05-09T00:42:05.202Z,84.02
2023-05-09T00:42:18.250Z,84.02
2023-05-09T00:42:30.158Z,84.12
2023-05-09T00:42:42.113Z,84.00
2023-05-09T00:42:58.807Z,83.89
2023-05-09T00:43:10.802Z,84.00
2023-05-09T00:43:22.720Z,83.79
2023-05-09T00:43:34.761Z,84.25
2023-05-09T00:43:46.749Z,84.11
2023-05-09T00:43:58.677Z,84.11
2023-05-09T00:44:10.567Z,84.03
2023-05-09T00:44:34.631Z,83.93
2023-05-09T00:44:46.553Z,83.97
2023-05-09T00:44:58.620Z,84.07
2023-05-09T00:45:11.534Z,83.95
2023-05-09T00:45:24.021Z,84.15
2023-05-09T00:45:36.027Z,83.88
2023-05-09T00:45:48.369Z,83.88
2023-05-09T00:46:00.444Z,83.93
2023-05-09T00:46:12.547Z,84.18
2023-05-09T00:46:25.459Z,84.10
2023-05-09T00:46:38.605Z,83.83
2023-05-09T00:46:50.593Z,83.83
2023-05-09T00:47:02.561Z,83.84
2023-05-09T00:47:14.547Z,83.74
2023-05-09T00:47:27.997Z,83.95
2023-05-09T00:47:40.110Z,83.99
2023-05-09T00:47:52.403Z,83.94
2023-05-09T00:48:04.930Z,83.81
2023-05-09T00:48:18.349Z,83.79
2023-05-09T00:48:30.360Z,83.70
2023-05-09T00:48:46.518Z,83.68
2023-05-09T00:48:58.691Z,84.04
2023-05-09T00:49:12.294Z,83.99
2023-05-09T00:49:24.248Z,83.89
2023-05-09T00:49:36.493Z,83.61
2023-05-09T00:49:48.493Z,83.79
2023-05-09T00:50:01.626Z,83.53
2023-05-09T00:50:13.821Z,83.29
2023-05-09T00:50:25.818Z,83.33
2023-05-09T00:50:37.786Z,83.49
2023-05-09T00:50:53.034Z,83.42
2023-05-09T00:51:05.264Z,83.57
2023-05-09T00:51:17.956Z,83.64
2023-05-09T00:51:30.929Z,83.50
2023-05-09T00:51:42.968Z,83.47
2023-05-09T00:51:55.927Z,83.54
2023-05-09T00:52:07.893Z,83.56
2023-05-09T00:52:23.313Z,83.94
2023-05-09T00:52:36.277Z,83.71
2023-05-09T00:53:01.084Z,84.01
2023-05-09T00:53:13.378Z,83.93
2023-05-09T00:53:25.386Z,83.87
2023-05-09T00:53:37.351Z,83.82
2023-05-09T00:53:50.617Z,83.91
2023-05-09T00:54:02.693Z,83.65
2023-05-09T00:54:14.719Z,83.83
2023-05-09T00:54:26.814Z,83.84
2023-05-09T00:54:38.966Z,83.85
2023-05-09T00:54:52.767Z,83.88
2023-05-09T00:55:08.984Z,84.17
2023-05-09T00:55:21.034Z,84.19
2023-05-09T00:55:33.407Z,84.14
2023-05-09T00:55:45.536Z,84.20
2023-05-09T00:55:58.248Z,83.93
2023-05-09T00:56:11.911Z,83.91
2023-05-09T00:56:23.994Z,83.94
2023-05-09T00:56:35.988Z,84.01
2023-05-09T00:56:48.135Z,83.83
2023-05-09T00:57:00.728Z,84.05
2023-05-09T00:57:12.670Z,83.96
2023-05-09T00:57:24.683Z,83.78
2023-05-09T00:57:37.154Z,83.86
2023-05-09T00:57:49.155Z,84.07
2023-05-09T00:58:02.664Z,83.96
2023-05-09T00:58:15.025Z,83.83
2023-05-09T00:58:27.232Z,84.09
2023-05-09T00:58:39.140Z,83.85
2023-05-09T00:58:51.669Z,83.85
2023-05-09T00:59:03.812Z,83.58
2023-05-09T00:59:17.975Z,83.53
2023-05-09T00:59:30.193Z,83.58
2023-05-09T00:59:42.247Z,83.34
2023-05-09T00:59:54.222Z,83.57
2023-05-09T01:00:07.022Z,83.42
2023-05-09T01:00:20.108Z,83.30
2023-05-09T01:00:32.221Z,83.04
2023-05-09T01:00:44.119Z,83.11
2023-05-09T01:00:56.393Z,82.84
2023-05-09T01:01:08.706Z,83.07
2023-05-09T01:01:21.257Z,82.80
2023-05-09T01:01:33.487Z,82.87
2023-05-09T01:01:46.170Z,82.89
2023-05-09T01:01:58.290Z,82.71
2023-05-09T01:02:12.574Z,82.83
2023-05-09T01:02:24.647Z,83.03
2023-05-09T01:02:37.363Z,82.75
2023-05-09T01:02:54.094Z,82.92
2023-05-09T01:03:06.721Z,83.11
2023-05-09T01:03:18.909Z,83.11
2023-05-09T01:03:32.110Z,83.04
2023-05-09T01:03:45.538Z,83.04
2023-05-09T01:03:58.299Z,83.19
2023-05-09T01:04:11.137Z,83.22
2023-05-09T01:04:23.658Z,83.06
2023-05-09T01:04:35.974Z,83.08
2023-05-09T01:04:48.451Z,83.31
2023-05-09T01:05:00.423Z,83.27
2023-05-09T01:05:14.366Z,83.22
2023-05-09T01:05:34.939Z,83.41
2023-05-09T01:06:02.813Z,83.37
2023-05-09T01:06:22.836Z,83.63
2023-05-09T01:06:55.254Z,83.90
2023-05-09T01:07:30.264Z,83.51
2023-05-09T01:08:07.821Z,84.38
2023-05-09T01:08:33.696Z,84.32
2023-05-09T01:08:59.587Z,84.65
2023-05-09T01:09:32.388Z,84.74
2023-05-09T01:09:47.563Z,85.02
2023-05-09T01:10:15.951Z,84.92
2023-05-09T01:10:43.658Z,85.07
2023-05-09T01:11:17.131Z,84.92
2023-05-09T01:11:36.308Z,84.91
2023-05-09T01:12:12.379Z,84.96
2023-05-09T01:12:49.592Z,84.63
2023-05-09T01:13:20.806Z,84.17
2023-05-09T01:13:52.416Z,84.06
2023-05-09T01:14:28.245Z,84.47
2023-05-09T01:15:14.288Z,84.30
2023-05-09T01:15:51.599Z,84.13
2023-05-09T01:16:15.448Z,84.59
2023-05-09T01:16:58.907Z,84.34
2023-05-09T01:17:18.029Z,84.17
2023-05-09T01:17:50.206Z,83.69
2023-05-09T01:18:16.197Z,83.77
2023-05-09T01:18:37.975Z,83.39
2023-05-09T01:19:12.300Z,83.35
2023-05-09T01:19:46.006Z,83.65
2023-05-09T01:20:24.194Z,83.52
2023-05-09T01:20:45.464Z,83.47
2023-05-09T01:21:08.898Z,83.99
2023-05-09T01:21:26.962Z,84.06
2023-05-09T01:21:43.869Z,84.19
2023-05-09T01:21:57.053Z,84.52
2023-05-09T01:22:12.064Z,84.35
2023-05-09T01:22:30.304Z,84.29
2023-05-09T01:22:55.276Z,84.54
2023-05-09T01:23:33.207Z,84.24
2023-05-09T01:23:45.199Z,84.47
2023-05-09T01:24:10.007Z,84.39
2023-05-09T01:24:49.401Z,84.34
2023-05-09T01:25:20.696Z,84.82
2023-05-09T01:25:38.356Z,84.71
2023-05-09T01:26:06.333Z,84.55
2023-05-09T01:26:36.315Z,84.45
2023-05-09T01:27:22.647Z,84.20
2023-05-09T01:27:59.206Z,83.99
2023-05-09T01:28:16.832Z,83.79
2023-05-09T01:29:17.326Z,83.15
2023-05-09T01:29:59.598Z,83.09
2023-05-09T01:30:13.746Z,83.21
2023-05-09T01:30:26.676Z,83.12
2023-05-09T01:30:42.541Z,83.13
2023-05-09T01:30:56.646Z,83.18
2023-05-09T01:31:09.753Z,83.17
2023-05-09T01:31:22.759Z,83.08
2023-05-09T01:31:39.390Z,83.27
2023-05-09T01:31:52.914Z,83.34
2023-05-09T01:32:09.593Z,83.25
2023-05-09T01:32:24.892Z,83.01
2023-05-09T01:32:39.249Z,83.49
2023-05-09T01:32:53.959Z,83.33
2023-05-09T01:33:08.131Z,83.62
2023-05-09T01:33:21.946Z,83.62
2023-05-09T01:33:38.348Z,83.54
2023-05-09T01:33:57.966Z,83.39
2023-05-09T01:34:11.403Z,83.49
2023-05-09T01:34:27.310Z,83.25
2023-05-09T01:34:41.038Z,83.42
2023-05-09T01:34:56.225Z,83.33
2023-05-09T01:35:12.581Z,83.08
2023-05-09T01:35:26.682Z,82.84
2023-05-09T01:35:44.335Z,82.67
2023-05-09T01:36:01.862Z,82.72
2023-05-09T01:36:17.973Z,82.93
2023-05-09T01:36:32.749Z,82.88
2023-05-09T01:36:48.742Z,82.74
2023-05-09T01:37:02.294Z,82.79
2023-05-09T01:37:16.524Z,82.73
2023-05-09T01:37:31.368Z,82.67
2023-05-09T01:37:49.001Z,82.43
2023-05-09T01:38:05.437Z,82.57
2023-05-09T01:38:23.744Z,82.65
2023-05-09T01:38:38.401Z,82.93
2023-05-09T01:38:52.293Z,82.80
2023-05-09T01:39:05.878Z,82.95
2023-05-09T01:39:19.135Z,82.86
2023-05-09T01:39:33.869Z,82.99
2023-05-09T01:39:50.679Z,83.03
2023-05-09T01:40:14.214Z,83.10
2023-05-09T01:40:30.390Z,83.05
2023-05-09T01:40:45.387Z,83.17
2023-05-09T01:40:59.873Z,83.05
2023-05-09T01:41:15.516Z,83.25
2023-05-09T01:41:32.060Z,83.20
2023-05-09T01:41:44.354Z,83.11
2023-05-09T01:41:58.038Z,83.21
2023-05-09T01:42:12.566Z,83.29
2023-05-09T01:42:27.880Z,83.37
2023-05-09T01:42:44.278Z,83.75
2023-05-09T01:43:09.951Z,83.61
2023-05-09T01:43:25.764Z,83.67
2023-05-09T01:43:38.867Z,83.74
2023-05-09T01:43:53.497Z,83.43
2023-05-09T01:44:13.409Z,83.56
2023-05-09T01:44:25.926Z,83.50
2023-05-09T01:44:40.937Z,83.46
2023-05-09T01:44:54.716Z,83.25
2023-05-09T01:45:08.291Z,83.29
2023-05-09T01:45:21.039Z,83.24
2023-05-09T01:45:34.173Z,83.26
2023-05-09T01:45:48.433Z,83.12
2023-05-09T01:46:02.298Z,83.10
2023-05-09T01:46:17.064Z,83.26
2023-05-09T01:46:30.586Z,83.26
2023-05-09T01:46:43.611Z,83.27
2023-05-09T01:46:55.851Z,83.09
2023-05-09T01:47:09.452Z,82.94
2023-05-09T01:47:22.929Z,82.97
2023-05-09T01:47:35.988Z,82.38
2023-05-09T01:47:49.104Z,82.50
2023-05-09T01:48:02.419Z,82.60
2023-05-09T01:48:15.593Z,82.67
2023-05-09T01:48:30.838Z,82.57
2023-05-09T01:48:45.313Z,82.57
2023-05-09T01:49:00.298Z,82.63
2023-05-09T01:49:13.779Z,82.71
2023-05-09T01:49:29.537Z,82.74
2023-05-09T01:49:42.809Z,82.39
2023-05-09T01:49:55.725Z,82.64
2023-05-09T01:50:11.229Z,82.20
2023-05-09T01:50:24.252Z,82.39
2023-05-09T01:50:37.692Z,82.57
2023-05-09T01:50:49.814Z,82.94
2023-05-09T01:51:02.751Z,82.84
2023-05-09T01:51:16.297Z,82.38
2023-05-09T01:51:29.593Z,82.56
2023-05-09T01:51:43.780Z,82.45
2023-05-09T01:51:57.443Z,82.54
2023-05-09T01:52:13.460Z,82.67
2023-05-09T01:52:26.356Z,82.71
2023-05-09T01:52:41.075Z,82.78
2023-05-09T01:52:56.110Z,82.41
2023-05-09T01:53:10.401Z,82.61
2023-05-09T01:53:24.159Z,82.88
2023-05-09T01:53:36.681Z,82.95
2023-05-09T01:53:51.226Z,82.91
2023-05-09T01:54:05.664Z,82.46
2023-05-09T01:54:18.715Z,82.83
2023-05-09T01:54:32.058Z,83.19
2023-05-09T01:54:45.864Z,83.01
2023-05-09T01:55:01.326Z,83.11
2023-05-09T01:55:14.613Z,83.11
2023-05-09T01:55:31.664Z,83.43
2023-05-09T01:55:44.067Z,83.29
2023-05-09T01:55:58.173Z,83.04
2023-05-09T01:56:12.646Z,83.23
2023-05-09T01:56:26.457Z,83.22
2023-05-09T01:56:42.084Z,83.06
2023-05-09T01:56:55.485Z,83.09
2023-05-09T01:57:08.890Z,83.42
2023-05-09T01:57:22.462Z,83.11
2023-05-09T01:57:36.351Z,83.24
2023-05-09T01:57:50.176Z,83.30
2023-05-09T01:58:05.428Z,83.22
2023-05-09T01:58:18.641Z,83.09
2023-05-09T01:58:33.632Z,83.34
2023-05-09T01:58:48.343Z,83.32
2023-05-09T01:59:02.194Z,83.27
2023-05-09T01:59:16.307Z,83.31
2023-05-09T01:59:29.954Z,83.05
2023-05-09T01:59:45.430Z,83.10
2023-05-09T01:59:59.009Z,83.20
2023-05-09T02:00:13.925Z,83.04
2023-05-09T02:00:27.319Z,83.16
2023-05-09T02:00:40.438Z,83.12
2023-05-09T02:00:53.057Z,83.05
2023-05-09T02:01:05.969Z,83.08
2023-05-09T02:01:19.751Z,83.00
2023-05-09T02:01:32.249Z,82.94
2023-05-09T02:01:46.861Z,82.88
2023-05-09T02:01:59.459Z,82.70
2023-05-09T02:02:12.411Z,82.89
2023-05-09T02:02:27.318Z,82.76
2023-05-09T02:02:39.965Z,82.88
2023-05-09T02:02:53.308Z,82.92
2023-05-09T02:03:06.193Z,82.71
2023-05-09T02:03:18.710Z,82.74
2023-05-09T02:03:33.947Z,82.81
2023-05-09T02:03:50.678Z,82.78
2023-05-09T02:04:04.560Z,82.94
2023-05-09T02:04:18.616Z,82.72
2023-05-09T02:04:31.006Z,82.59
2023-05-09T02:04:44.153Z,82.75
2023-05-09T02:04:57.194Z,82.93
2023-05-09T02:05:10.765Z,83.15
2023-05-09T02:05:27.297Z,83.22
2023-05-09T02:05:40.208Z,82.90
2023-05-09T02:05:52.803Z,82.96
2023-05-09T02:06:05.102Z,83.38
2023-05-09T02:06:18.539Z,83.47
2023-05-09T02:06:32.547Z,83.24
2023-05-09T02:06:49.535Z,83.21
2023-05-09T02:07:02.417Z,83.47
2023-05-09T02:07:15.040Z,83.34
2023-05-09T02:07:29.935Z,83.34
2023-05-09T02:07:42.789Z,83.34
2023-05-09T02:07:59.442Z,83.54
2023-05-09T02:08:14.125Z,83.47
2023-05-09T02:08:26.695Z,83.37
2023-05-09T02:08:38.844Z,83.46
2023-05-09T02:08:51.089Z,83.32
2023-05-09T02:09:03.482Z,83.44
2023-05-09T02:09:15.767Z,83.42
2023-05-09T02:09:27.831Z,83.63
2023-05-09T02:09:39.784Z,83.59
2023-05-09T02:09:54.007Z,83.64
2023-05-09T02:10:09.028Z,83.54
2023-05-09T02:10:22.621Z,83.68
2023-05-09T02:10:35.698Z,83.77
2023-05-09T02:10:49.265Z,83.71
2023-05-09T02:11:01.265Z,83.63
2023-05-09T02:11:13.198Z,83.64
2023-05-09T02:11:25.779Z,83.67
2023-05-09T02:11:37.717Z,83.63
2023-05-09T02:11:49.700Z,83.70
2023-05-09T02:12:01.986Z,83.68
2023-05-09T02:12:13.920Z,83.44
2023-05-09T02:12:26.736Z,83.58
2023-05-09T02:12:39.848Z,83.53
2023-05-09T02:12:52.555Z,83.46
2023-05-09T02:13:04.516Z,83.18
2023-05-09T02:13:17.072Z,83.14
2023-05-09T02:13:29.929Z,83.01
2023-05-09T02:13:41.979Z,82.92
2023-05-09T02:13:53.964Z,82.87
2023-05-09T02:14:06.294Z,82.49
2023-05-09T02:14:18.230Z,82.55
2023-05-09T02:14:31.123Z,82.74
2023-05-09T02:14:43.546Z,82.84
2023-05-09T02:14:55.570Z,82.66
2023-05-09T02:15:08.822Z,82.62
2023-05-09T02:15:21.752Z,82.73
2023-05-09T02:15:34.299Z,82.63
2023-05-09T02:15:47.089Z,82.80
2023-05-09T02:15:59.581Z,82.77
2023-05-09T02:16:12.101Z,83.04
2023-05-09T02:16:24.175Z,83.07
2023-05-09T02:16:36.307Z,83.37
2023-05-09T02:16:48.458Z,83.10
2023-05-09T02:17:06.302Z,83.08
2023-05-09T02:17:19.144Z,83.12
2023-05-09T02:17:31.326Z,83.12
2023-05-09T02:17:43.317Z,82.87
2023-05-09T02:17:55.327Z,82.93
2023-05-09T02:18:07.373Z,82.69
2023-05-09T02:18:19.282Z,82.84
2023-05-09T02:18:32.530Z,82.65
2023-05-09T02:18:44.444Z,82.77
2023-05-09T02:18:56.396Z,82.87
2023-05-09T02:19:08.324Z,83.17
2023-05-09T02:19:20.220Z,82.85
2023-05-09T02:19:35.828Z,82.95
2023-05-09T02:19:47.805Z,82.97
2023-05-09T02:19:59.866Z,82.87
2023-05-09T02:20:13.466Z,82.62
2023-05-09T02:20:25.389Z,82.60
2023-05-09T02:20:37.358Z,82.54
2023-05-09T02:20:49.354Z,82.50
2023-05-09T02:21:02.751Z,82.56
2023-05-09T02:21:14.690Z,82.75
2023-05-09T02:21:29.074Z,82.69
2023-05-09T02:21:41.352Z,82.65
2023-05-09T02:21:53.277Z,82.52
2023-05-09T02:22:05.326Z,82.45
2023-05-09T02:22:17.618Z,82.39
2023-05-09T02:22:29.568Z,82.46
2023-05-09T02:22:42.960Z,82.73
2023-05-09T02:22:54.949Z,82.58
2023-05-09T02:23:06.973Z,82.60
2023-05-09T02:23:20.150Z,82.66
2023-05-09T02:23:32.080Z,82.61
2023-05-09T02:23:44.126Z,82.51
2023-05-09T02:23:56.485Z,82.47
2023-05-09T02:24:08.467Z,82.65
2023-05-09T02:24:20.482Z,82.44
2023-05-09T02:24:34.302Z,82.66
2023-05-09T02:24:46.278Z,82.32
2023-05-09T02:24:58.264Z,82.41
2023-05-09T02:25:14.277Z,82.33
2023-05-09T02:25:26.440Z,82.44
2023-05-09T02:25:39.369Z,82.20
2023-05-09T02:25:54.099Z,82.23
2023-05-09T02:26:06.552Z,82.35
2023-05-09T02:26:19.470Z,82.41
2023-05-09T02:26:31.671Z,82.46
2023-05-09T02:26:44.053Z,82.45
2023-05-09T02:26:57.755Z,82.16
2023-05-09T02:27:11.660Z,82.68
2023-05-09T02:27:23.832Z,82.46
2023-05-09T02:27:38.665Z,82.55
2023-05-09T02:27:51.952Z,82.43
2023-05-09T02:28:04.106Z,82.83
2023-05-09T02:28:19.385Z,82.81
2023-05-09T02:28:31.669Z,82.61
2023-05-09T02:28:45.468Z,82.30
2023-05-09T02:28:58.758Z,82.75
2023-05-09T02:29:11.629Z,82.42
2023-05-09T02:29:40.426Z,82.33
2023-05-09T02:29:56.379Z,82.33
2023-05-09T02:30:11.348Z,82.38
2023-05-09T02:30:27.772Z,82.28
2023-05-09T02:30:44.175Z,82.41
2023-05-09T02:30:58.713Z,82.29
2023-05-09T02:31:13.054Z,82.22
2023-05-09T02:31:28.322Z,82.17
2023-05-09T02:31:42.266Z,82.52
2023-05-09T02:31:54.561Z,82.33
2023-05-09T02:32:09.731Z,82.01
2023-05-09T02:32:28.813Z,81.96
2023-05-09T02:32:44.100Z,82.03
2023-05-09T02:33:02.367Z,81.99
2023-05-09T02:33:14.499Z,81.90
2023-05-09T02:33:27.384Z,82.13
2023-05-09T02:33:41.346Z,82.35
2023-05-09T02:33:54.525Z,82.39
2023-05-09T02:34:07.246Z,82.41
2023-05-09T02:34:20.179Z,82.45
2023-05-09T02:34:33.136Z,82.44
2023-05-09T02:34:46.046Z,82.37
2023-05-09T02:35:00.801Z,82.47
2023-05-09T02:35:14.995Z,82.38
2023-05-09T02:35:28.820Z,82.62
2023-05-09T02:35:44.391Z,82.69
2023-05-09T02:35:57.196Z,82.77
2023-05-09T02:36:10.249Z,82.86
2023-05-09T02:36:23.314Z,82.88
2023-05-09T02:36:35.748Z,83.06
2023-05-09T02:36:47.789Z,83.01
2023-05-09T02:37:00.225Z,83.03
2023-05-09T02:37:13.638Z,83.08
2023-05-09T02:37:26.148Z,83.23
2023-05-09T02:37:40.117Z,83.23
2023-05-09T02:37:52.922Z,83.14
2023-05-09T02:38:06.343Z,83.17
2023-05-09T02:38:19.246Z,83.26
2023-05-09T02:38:31.534Z,83.26
2023-05-09T02:38:45.137Z,83.54
2023-05-09T02:38:57.092Z,83.16
2023-05-09T02:39:09.642Z,83.03
2023-05-09T02:39:21.814Z,83.17
2023-05-09T02:39:34.526Z,83.13
2023-05-09T02:39:47.285Z,83.20
2023-05-09T02:40:00.000Z,83.35
2023-05-09T02:40:13.358Z,83.10
2023-05-09T02:40:28.058Z,83.27
2023-05-09T02:40:42.846Z,83.23
2023-05-09T02:40:55.008Z,82.90
2023-05-09T02:41:07.345Z,83.07
2023-05-09T02:41:19.383Z,83.02
2023-05-09T02:41:31.672Z,83.08
2023-05-09T02:41:49.323Z,83.07
2023-05-09T02:42:10.706Z,83.30
2023-05-09T02:42:27.685Z,83.43
2023-05-09T02:42:39.648Z,83.49
2023-05-09T02:42:51.696Z,83.34
2023-05-09T02:43:04.137Z,83.48
2023-05-09T02:43:16.309Z,83.37
2023-05-09T02:43:28.218Z,83.55
2023-05-09T02:43:40.261Z,83.46
2023-05-09T02:43:52.439Z,83.50
2023-05-09T02:44:05.103Z,83.31
2023-05-09T02:44:17.015Z,83.23
2023-05-09T02:44:28.949Z,83.10
2023-05-09T02:44:40.939Z,83.39
2023-05-09T02:44:53.742Z,83.20
2023-05-09T02:45:07.120Z,83.38
2023-05-09T02:45:19.160Z,83.34
2023-05-09T02:45:32.209Z,82.74
2023-05-09T02:45:44.630Z,83.41
2023-05-09T02:45:56.645Z,83.23
2023-05-09T02:46:10.187Z,83.48
2023-05-09T02:46:22.384Z,83.51
2023-05-09T02:46:34.445Z,83.27
2023-05-09T02:46:46.710Z,83.46
2023-05-09T02:46:58.744Z,83.42
2023-05-09T02:47:11.066Z,83.40
2023-05-09T02:47:23.469Z,83.63
2023-05-09T02:47:35.469Z,83.60
2023-05-09T02:47:47.620Z,83.65
2023-05-09T02:48:00.022Z,83.76
2023-05-09T02:48:12.096Z,84.01
2023-05-09T02:48:24.603Z,83.77
2023-05-09T02:48:36.847Z,83.44
2023-05-09T02:48:49.202Z,83.58
2023-05-09T02:49:01.306Z,83.55
2023-05-09T02:49:26.748Z,83.68
2023-05-09T02:49:43.498Z,83.85
2023-05-09T02:49:55.387Z,83.51
2023-05-09T02:50:08.036Z,83.71
2023-05-09T02:50:20.068Z,83.94
2023-05-09T02:50:32.667Z,84.27
2023-05-09T02:50:45.826Z,84.11
2023-05-09T02:50:58.311Z,84.15
2023-05-09T02:51:10.275Z,83.84
2023-05-09T02:51:22.951Z,83.74
2023-05-09T02:51:34.871Z,83.96
2023-05-09T02:51:47.005Z,83.83
2023-05-09T02:51:59.053Z,83.78
2023-05-09T02:52:11.942Z,83.77
2023-05-09T02:52:23.827Z,83.65
2023-05-09T02:52:35.900Z,83.79
2023-05-09T02:52:47.893Z,83.54
2023-05-09T02:53:00.334Z,83.72
2023-05-09T02:53:12.260Z,83.75
2023-05-09T02:53:24.677Z,83.59
2023-05-09T02:53:36.575Z,83.74
2023-05-09T02:53:48.846Z,83.67
2023-05-09T02:54:00.834Z,83.66
2023-05-09T02:54:12.884Z,83.47
2023-05-09T02:54:24.878Z,83.40
2023-05-09T02:54:38.161Z,83.72
2023-05-09T02:54:50.075Z,83.56
2023-05-09T02:55:03.468Z,83.28
2023-05-09T02:55:16.014Z,83.41
2023-05-09T02:55:28.476Z,83.48
2023-05-09T02:55:40.489Z,83.39
2023-05-09T02:55:53.851Z,83.29
2023-05-09T02:56:05.930Z,83.34
2023-05-09T02:56:17.868Z,83.58
2023-05-09T02:56:29.760Z,83.60
2023-05-09T02:56:41.863Z,83.33
2023-05-09T02:56:54.017Z,83.38
2023-05-09T02:57:06.634Z,83.32
2023-05-09T02:57:18.562Z,83.32
2023-05-09T02:57:30.962Z,83.36
2023-05-09T02:57:43.707Z,83.20
2023-05-09T02:58:09.285Z,83.17
2023-05-09T02:58:25.269Z,83.07
2023-05-09T02:58:37.280Z,83.05
2023-05-09T02:58:51.450Z,82.93
2023-05-09T02:59:03.625Z,82.95
2023-05-09T02:59:16.037Z,83.08
2023-05-09T02:59:28.500Z,82.75
2023-05-09T02:59:40.457Z,82.49
2023-05-09T02:59:54.834Z,82.33
2023-05-09T03:00:10.659Z,82.32
2023-05-09T03:00:23.826Z,82.40
2023-05-09T03:00:36.034Z,82.19
2023-05-09T03:00:47.956Z,82.23
2023-05-09T03:01:00.086Z,82.13
2023-05-09T03:01:12.086Z,82.32
2023-05-09T03:01:25.358Z,82.38
2023-05-09T03:01:37.721Z,82.15
2023-05-09T03:01:49.951Z,82.41
2023-05-09T03:02:02.085Z,82.28
2023-05-09T03:02:14.141Z,82.27
2023-05-09T03:02:26.185Z,82.28
2023-05-09T03:02:38.648Z,82.41
2023-05-09T03:02:50.766Z,82.42
2023-05-09T03:03:03.476Z,82.20